Time;durP1;ratioP1;P1;durP2;ratioP2;P2;SDS_P1;SDS_P2;PMS_P1;PMS_P2;Temp;Humidity;BMP_temperature;BMP_pressure;BME280_temperature;BME280_humidity;BME280_pressure;Samples;Min_cycle;Max_cycle;Signal;HPM_P1;HPM_P2
2023/04/04 00:06:44;;;;;;;2.80;1.70;;;;;;;-0.44;100.00;98154.03;18296155;32;20109;-58
2023/04/04 00:16:46;;;;;;;2.42;1.20;;;;;;;-0.44;100.00;98159.34;18295978;32;20084;-57
2023/04/04 00:26:49;;;;;;;3.00;1.33;;;;;;;-0.60;100.00;98151.59;18295395;32;20050;-58
2023/04/04 00:36:52;;;;;;;1.93;1.20;;;;;;;-0.69;100.00;98153.50;18294248;32;20363;-58
2023/04/04 00:46:55;;;;;;;1.73;0.90;;;;;;;-0.86;100.00;98150.25;18294057;32;20066;-58
2023/04/04 00:56:58;;;;;;;1.73;1.07;;;;;;;-0.92;100.00;98148.31;18280802;32;20050;-58
2023/04/04 01:07:01;;;;;;;2.30;1.07;;;;;;;-1.05;100.00;98133.87;18280098;32;20160;-57
2023/04/04 01:17:04;;;;;;;2.00;1.00;;;;;;;-1.07;100.00;98132.41;18293492;32;20046;-57
2023/04/04 01:27:07;;;;;;;1.63;1.00;;;;;;;-1.02;100.00;98128.19;18293377;32;20054;-58
2023/04/04 01:37:45;;;;;;;2.80;1.30;;;;;;;-0.89;100.00;98134.66;18292320;32;20419;-59
2023/04/04 01:47:47;;;;;;;2.33;1.10;;;;;;;-0.84;100.00;98129.62;18292209;32;20092;-58
2023/04/04 01:57:50;;;;;;;3.67;1.30;;;;;;;-0.94;100.00;98124.63;18292954;32;20081;-58
2023/04/04 02:07:52;;;;;;;3.37;1.30;;;;;;;-0.84;100.00;98126.16;18301898;32;20088;-59
2023/04/04 02:17:55;;;;;;;2.43;1.10;;;;;;;-0.58;100.00;98126.47;18287829;32;20050;-59
2023/04/04 02:27:58;;;;;;;2.03;1.30;;;;;;;-0.67;100.00;98116.97;18300988;32;20049;-58
2023/04/04 02:38:00;;;;;;;1.90;1.20;;;;;;;-0.58;100.00;98115.84;18286113;32;20088;-59
2023/04/04 02:48:03;;;;;;;2.30;1.30;;;;;;;-0.56;100.00;98113.03;18300183;32;20449;-58
2023/04/04 02:58:06;;;;;;;2.23;1.20;;;;;;;-0.56;100.00;98107.72;18299639;32;20046;-59
2023/04/04 03:08:08;;;;;;;1.90;1.43;;;;;;;-0.56;100.00;98113.84;18298896;32;20053;-59
2023/04/04 03:18:11;;;;;;;2.60;1.60;;;;;;;-0.77;100.00;98119.91;18298811;32;20042;-59
2023/04/04 03:28:14;;;;;;;2.10;1.20;;;;;;;-0.86;100.00;98110.44;18298116;32;20095;-59
2023/04/04 03:38:17;;;;;;;2.80;1.80;;;;;;;-0.86;100.00;98118.37;18297627;32;20102;-58
2023/04/04 03:48:19;;;;;;;2.53;1.60;;;;;;;-0.91;100.00;98110.16;18297272;32;20092;-59
2023/04/04 03:58:23;;;;;;;2.80;1.70;;;;;;;-1.06;100.00;98103.00;18296756;32;20370;-58
2023/04/04 04:08:26;;;;;;;2.80;1.60;;;;;;;-1.24;100.00;98115.84;18296446;32;20058;-59
2023/04/04 04:18:29;;;;;;;3.33;1.90;;;;;;;-1.32;100.00;98114.09;18295802;32;20058;-59
2023/04/04 04:28:31;;;;;;;4.00;1.80;;;;;;;-1.52;100.00;98116.50;18294640;32;20104;-59
2023/04/04 04:38:35;;;;;;;3.77;1.53;;;;;;;-1.76;100.00;98123.66;18294648;32;20468;-59
2023/04/04 04:48:38;;;;;;;3.57;1.73;;;;;;;-1.92;100.00;98126.44;18294631;32;20097;-59
2023/04/04 04:58:40;;;;;;;2.77;1.87;;;;;;;-2.12;100.00;98134.06;18280644;32;20065;-59
2023/04/04 05:08:43;;;;;;;4.30;1.57;;;;;;;-2.25;100.00;98139.94;18279131;32;20062;-59
2023/04/04 05:18:45;;;;;;;4.07;1.63;;;;;;;-2.27;100.00;98137.47;18279754;32;20073;-59
2023/04/04 05:28:48;;;;;;;3.10;1.50;;;;;;;-2.34;100.00;98135.69;18292761;32;20085;-59
2023/04/04 05:38:51;;;;;;;2.50;1.83;;;;;;;-2.33;100.00;98153.25;18301487;32;20076;-59
2023/04/04 05:48:53;;;;;;;2.40;1.73;;;;;;;-2.20;100.00;98148.19;18303155;32;20453;-59
2023/04/04 05:58:56;;;;;;;2.83;1.90;;;;;;;-2.07;100.00;98166.16;18288759;32;20050;-59
2023/04/04 06:08:58;;;;;;;3.77;2.20;;;;;;;-1.81;100.00;98179.06;18301928;32;20142;-59
2023/04/04 06:19:00;;;;;;;4.90;2.03;;;;;;;-1.33;100.00;98185.91;18301665;32;20069;-59
2023/04/04 06:29:03;;;;;;;4.20;2.13;;;;;;;-0.80;100.00;98186.66;18287195;32;20085;-59
2023/04/04 06:39:06;;;;;;;4.90;1.87;;;;;;;-0.40;100.00;98187.19;18286936;32;20054;-59
2023/04/04 06:49:09;;;;;;;4.10;2.10;;;;;;;-0.01;100.00;98198.44;18286128;32;20366;-59
2023/04/04 06:59:12;;;;;;;4.10;2.13;;;;;;;0.35;100.00;98197.53;18299640;32;20118;-59
2023/04/04 07:09:15;;;;;;;2.87;1.83;;;;;;;0.75;97.03;98194.37;18299206;32;20077;-59
2023/04/04 07:19:30;;;;;;;3.33;1.83;;;;;;;1.06;100.00;98183.31;18273797;32;20118;-59
2023/04/04 07:29:33;;;;;;;4.33;1.90;;;;;;;1.51;91.63;98178.41;18284636;32;20105;-59
2023/04/04 07:39:35;;;;;;;5.90;2.10;;;;;;;1.86;81.94;98182.81;18271567;32;20121;-59
2023/04/04 07:49:41;;;;;;;3.63;2.03;;;;;;;2.31;81.40;98174.28;18297098;32;20058;-59
2023/04/04 07:59:43;;;;;;;5.53;1.70;;;;;;;2.71;76.77;98177.78;18295790;32;20062;-59
2023/04/04 08:09:46;;;;;;;2.43;1.57;;;;;;;2.98;73.53;98169.72;18282669;32;20054;-59
2023/04/04 08:19:49;;;;;;;4.03;2.07;;;;;;;3.44;71.47;98178.66;18295879;32;20070;-59
2023/04/04 08:29:52;;;;;;;5.53;2.17;;;;;;;3.73;66.14;98174.63;18295017;32;20117;-59
2023/04/04 08:39:54;;;;;;;2.03;1.30;;;;;;;4.15;64.56;98173.34;18295020;32;20038;-59
2023/04/04 08:50:00;;;;;;;5.60;1.77;;;;;;;4.61;56.46;98158.00;18294513;32;20104;-59
2023/04/04 09:00:05;;;;;;;3.10;1.60;;;;;;;4.95;58.31;98170.03;18294345;32;20054;-58
2023/04/04 09:10:13;;;;;;;3.37;1.80;;;;;;;5.26;52.43;98170.94;18298525;32;20102;-59
2023/04/04 09:20:39;;;;;;;3.93;1.63;;;;;;;5.54;54.41;98175.00;18304604;32;20058;-59
2023/04/04 09:30:44;;;;;;;3.67;1.60;;;;;;;5.86;53.78;98170.22;18303671;32;20101;-59
2023/04/04 09:40:46;;;;;;;1.67;1.47;;;;;;;6.24;51.84;98157.56;18289485;32;20050;-59
2023/04/04 09:50:49;;;;;;;2.80;1.20;;;;;;;6.63;50.45;98174.09;18289181;32;20062;-59
2023/04/04 10:00:56;;;;;;;3.25;1.42;;;;;;;6.83;49.27;98172.94;18289187;32;20046;-59
2023/04/04 10:11:03;;;;;;;4.55;1.77;;;;;;;7.05;51.06;98176.66;18288741;32;20418;-59
2023/04/04 10:21:13;;;;;;;2.93;1.80;;;;;;;7.19;49.39;98181.81;18301173;32;20117;-59
2023/04/04 10:31:25;;;;;;;4.47;2.23;;;;;;;7.57;48.27;98181.28;18301082;32;20054;-59
2023/04/04 10:41:31;;;;;;;3.17;1.73;;;;;;;7.39;50.13;98178.75;18300464;32;20347;-59
2023/04/04 10:51:35;;;;;;;3.97;2.03;;;;;;;7.18;49.37;98182.88;18300479;32;20098;-59
2023/04/04 11:01:57;;;;;;;2.43;1.70;;;;;;;7.44;48.05;98178.84;18299514;32;20430;-59
2023/04/04 11:12:07;;;;;;;4.17;2.07;;;;;;;7.80;46.65;98179.59;18299330;32;20050;-59
2023/04/04 11:22:10;;;;;;;4.67;1.67;;;;;;;7.71;46.78;98162.97;18298738;32;20061;-59
2023/04/04 11:32:43;;;;;;;2.87;1.57;;;;;;;8.02;47.11;98168.97;18283565;32;20086;-59
2023/04/04 11:43:07;;;;;;;4.13;1.43;;;;;;;8.52;46.43;98150.44;18297826;32;20047;-59
2023/04/04 11:53:12;;;;;;;3.53;2.00;;;;;;;8.65;45.97;98136.66;18297311;32;20068;-59
2023/04/04 12:03:17;;;;;;;2.92;1.67;;;;;;;8.73;44.73;98140.78;18296604;32;20488;-59
2023/04/04 12:13:20;;;;;;;2.83;1.33;;;;;;;9.35;46.68;98129.00;18296437;32;20072;-59
2023/04/04 12:23:23;;;;;;;3.53;1.83;;;;;;;10.04;43.05;98127.59;18281831;32;20057;-59
2023/04/04 12:33:25;;;;;;;2.73;1.70;;;;;;;9.98;42.78;98124.03;18281702;32;20076;-58
2023/04/04 12:43:30;;;;;;;2.47;1.37;;;;;;;10.37;47.78;98114.16;18294295;32;20058;-57
2023/04/04 12:53:34;;;;;;;2.72;1.33;;;;;;;10.77;42.63;98120.94;18294736;32;20050;-58
2023/04/04 13:03:38;;;;;;;2.20;1.30;;;;;;;10.96;39.19;98121.31;18293815;32;20394;-58
2023/04/04 13:13:42;;;;;;;4.57;2.00;;;;;;;11.41;39.75;98117.22;18280294;32;20047;-57
2023/04/04 13:23:45;;;;;;;;;;;;;;;11.76;39.08;98115.75;18293844;32;20054;-58
2023/04/04 13:33:48;;;;;;;3.63;1.63;;;;;;;11.89;41.05;98111.69;18292712;32;19960;-58
2023/04/04 13:43:51;;;;;;;3.53;1.67;;;;;;;12.53;39.66;98099.56;18278768;32;20094;-58
2023/04/04 13:53:53;;;;;;;2.67;1.90;;;;;;;12.64;40.88;98092.25;18293976;32;20117;-57
2023/04/04 14:03:56;;;;;;;3.43;1.80;;;;;;;12.24;39.13;98104.75;18288927;32;20113;-59
2023/04/04 14:13:59;;;;;;;5.27;2.27;;;;;;;12.00;43.15;98072.75;18275300;32;20058;-58
2023/04/04 14:24:02;;;;;;;4.27;2.10;;;;;;;12.26;39.83;98077.34;18301381;32;20077;-59
2023/04/04 14:34:05;;;;;;;3.13;1.83;;;;;;;12.77;40.01;98052.91;18301091;32;20490;-58
2023/04/04 14:44:08;;;;;;;3.00;1.60;;;;;;;12.23;38.12;98056.22;18300572;32;20076;-58
2023/04/04 14:54:11;;;;;;;4.53;2.00;;;;;;;12.05;40.36;98060.28;18300178;32;20054;-58
2023/04/04 15:04:14;;;;;;;6.80;1.87;;;;;;;11.93;38.08;98057.78;18299183;32;20160;-58
2023/04/04 15:14:17;;;;;;;3.27;2.00;;;;;;;11.22;38.87;98051.09;18298909;32;20076;-59
2023/04/04 15:24:20;;;;;;;4.70;1.90;;;;;;;10.78;41.24;98049.53;18298436;32;20065;-59
2023/04/04 15:34:24;;;;;;;3.87;1.80;;;;;;;11.08;38.95;98043.47;18284090;32;20400;-59
2023/04/04 15:44:26;;;;;;;4.30;1.87;;;;;;;11.25;39.36;98042.44;18297598;32;20434;-59
2023/04/04 15:54:30;;;;;;;5.43;2.03;;;;;;;11.14;40.30;98042.41;18297293;32;20059;-59
2023/04/04 16:04:33;;;;;;;3.90;1.70;;;;;;;10.62;40.96;98043.22;18282987;32;20072;-59
2023/04/04 16:14:35;;;;;;;3.20;1.73;;;;;;;10.32;40.70;98028.41;18296039;32;20046;-58
2023/04/04 16:24:38;;;;;;;4.53;1.93;;;;;;;10.30;41.01;98033.25;18294788;32;20058;-58
2023/04/04 16:34:41;;;;;;;5.60;1.90;;;;;;;10.01;42.04;98031.66;18295013;32;20076;-58
2023/04/04 16:44:47;;;;;;;3.57;1.50;;;;;;;9.56;42.63;98040.97;18294833;32;20339;-58
2023/04/04 16:54:53;;;;;;;4.13;1.70;;;;;;;9.27;43.04;98032.28;18294323;32;20077;-58
2023/04/04 17:04:55;;;;;;;3.90;1.57;;;;;;;8.92;44.41;98031.59;18294170;32;20080;-59
2023/04/04 17:14:58;;;;;;;3.63;1.70;;;;;;;8.92;45.18;98025.38;18293521;32;20046;-59
2023/04/04 17:25:02;;;;;;;2.37;1.30;;;;;;;8.86;43.98;98031.78;18293543;32;20042;-59
2023/04/04 17:35:05;;;;;;;3.27;1.40;;;;;;;8.43;47.26;98018.78;18302007;32;20090;-59
2023/04/04 17:45:09;;;;;;;7.10;1.63;;;;;;;7.69;44.61;98014.38;18290038;32;20054;-58
2023/04/04 17:55:12;;;;;;;2.40;1.50;;;;;;;7.16;46.77;98010.97;18289411;32;20065;-57
2023/04/04 18:05:15;;;;;;;2.83;1.43;;;;;;;6.52;49.33;98017.19;18302555;32;20113;-58
2023/04/04 18:15:18;;;;;;;3.47;1.57;;;;;;;6.08;49.65;98012.19;18302103;32;20055;-58
2023/04/04 18:25:21;;;;;;;2.47;1.40;;;;;;;5.65;50.46;98023.19;18301625;32;20366;-58
2023/04/04 18:35:23;;;;;;;3.73;1.43;;;;;;;5.23;51.35;98037.34;18301222;32;20382;-57
2023/04/04 18:45:26;;;;;;;1.40;1.10;;;;;;;4.91;53.65;98058.97;18299784;32;20054;-56
2023/04/04 18:55:41;;;;;;;3.45;1.55;;;;;;;4.40;55.48;98066.31;18300688;32;20117;-55
2023/04/04 19:05:47;;;;;;;2.53;1.60;;;;;;;3.98;62.56;98074.88;18299557;32;20050;-57
2023/04/04 19:15:50;;;;;;;3.40;1.80;;;;;;;3.83;62.64;98077.03;18299376;32;20050;-58
2023/04/04 19:25:54;;;;;;;3.80;1.80;;;;;;;3.43;68.73;98088.00;18298709;32;20054;-57
2023/04/04 19:36:01;;;;;;;2.33;1.47;;;;;;;3.04;73.28;98088.75;18272394;32;20425;-58
2023/04/04 19:46:14;;;;;;;5.57;1.90;;;;;;;2.67;76.52;98091.12;18297689;32;20068;-56
2023/04/04 19:56:20;;;;;;;6.33;1.87;;;;;;;2.36;80.39;98094.44;18297333;32;20053;-57
2023/04/04 20:06:27;;;;;;;5.60;2.37;;;;;;;2.14;84.11;98100.00;18297210;32;20094;-57
2023/04/04 20:16:30;;;;;;;4.17;2.03;;;;;;;1.92;88.09;98090.53;18296091;32;20059;-56
2023/04/04 20:27:01;;;;;;;3.87;2.00;;;;;;;1.66;91.56;98094.81;18282304;32;20050;-57
2023/04/04 20:37:18;;;;;;;4.77;2.90;;;;;;;1.61;87.43;98099.94;18295522;32;20113;-57
2023/04/04 20:47:43;;;;;;;5.53;2.67;;;;;;;1.78;82.85;98109.19;18294998;32;20055;-58
2023/04/04 20:57:47;;;;;;;5.57;2.57;;;;;;;1.84;79.36;98115.56;18294948;32;20109;-58
2023/04/04 21:07:49;;;;;;;4.27;2.50;;;;;;;1.89;77.74;98121.09;18301029;32;20331;-57
2023/04/04 21:17:52;;;;;;;5.43;2.90;;;;;;;1.98;74.63;98130.53;18305450;32;20101;-58
2023/04/04 21:27:54;;;;;;;3.70;2.60;;;;;;;1.93;76.61;98129.50;18304379;32;20467;-58
2023/04/04 21:37:57;;;;;;;3.60;2.33;;;;;;;1.79;75.15;98137.47;18290068;32;20057;-58
2023/04/04 21:47:59;;;;;;;3.60;2.57;;;;;;;1.55;78.88;98138.88;18303488;32;20110;-57
2023/04/04 21:58:02;;;;;;;6.07;3.00;;;;;;;1.18;85.45;98146.31;18303388;32;20351;-57
2023/04/04 22:08:05;;;;;;;5.27;2.70;;;;;;;0.88;90.24;98143.03;18289220;32;20415;-58
2023/04/04 22:18:13;;;;;;;5.20;2.60;;;;;;;0.62;97.89;98148.00;18287048;32;20098;-56
2023/04/04 22:28:17;;;;;;;3.67;2.57;;;;;;;0.31;100.00;98141.22;18301453;32;20118;-57
2023/04/04 22:38:19;;;;;;;5.20;2.83;;;;;;;0.07;100.00;98134.50;18236640;32;20106;-58
2023/04/04 22:48:22;;;;;;;3.63;2.87;;;;;;;-0.13;100.00;98141.47;18237578;32;20351;-59
2023/04/04 22:58:25;;;;;;;5.93;3.87;;;;;;;-0.39;100.00;98135.66;18237230;32;20370;-58
2023/04/04 23:08:27;;;;;;;5.37;2.90;;;;;;;-0.54;100.00;98132.25;18237023;32;20114;-57
2023/04/04 23:18:29;;;;;;;4.30;2.60;;;;;;;-0.71;100.00;98121.03;18236260;32;20374;-57
2023/04/04 23:28:32;;;;;;;3.13;2.43;;;;;;;-0.83;100.00;98114.53;18234532;32;20089;-57
2023/04/04 23:38:34;;;;;;;4.37;3.27;;;;;;;-1.04;100.00;98105.50;18296038;32;20070;-57
2023/04/04 23:48:37;;;;;;;4.53;3.03;;;;;;;-1.16;100.00;98102.50;18283818;32;20070;-56
2023/04/04 23:58:40;;;;;;;4.27;2.73;;;;;;;-1.30;100.00;98112.09;18297193;32;20118;-56
